This is the latest recevied weather packets stored in our database for station/object OK2ZA-6. If no packets are shown the sender has not sent any weather packets the latest 10 day(s).
| Time | Temp. | Humidity | Pressure | Rain* | Wind** | Luminosity | Snow |
|---|---|---|---|---|---|---|---|
| 1777684203 | 7.78° C | 71% | 1025.1 hPa | 0 mm | - | - | - |
| 1777683603 | 7.78° C | 72% | 1025.1 hPa | 0 mm | - | - | - |
| 1777683004 | 7.78° C | 73% | 1025.1 hPa | 0 mm | - | - | - |
| 1777682403 | 7.78° C | 72% | 1025.2 hPa | 0 mm | - | - | - |
| 1777681804 | 7.78° C | 71% | 1025.2 hPa | 0 mm | - | - | - |
| 1777681204 | 8.33° C | 70% | 1025.1 hPa | 0 mm | - | - | - |
| 1777680604 | 8.33° C | 70% | 1025.1 hPa | 0 mm | - | - | - |
| 1777680004 | 8.33° C | 69% | 1025.2 hPa | 0 mm | - | - | - |
| 1777679405 | 8.89° C | 66% | 1025.2 hPa | 0 mm | - | - | - |
| 1777678804 | 9.44° C | 66% | 1025.3 hPa | 0 mm | - | - | - |
| 1777678204 | 9.44° C | 66% | 1025.4 hPa | 0 mm | - | - | - |
| 1777677604 | 10° C | 63% | 1025.5 hPa | 0 mm | - | - | - |
| 1777677004 | 10° C | 63% | 1025.5 hPa | 0 mm | - | - | - |
| 1777676404 | 10.56° C | 62% | 1025.6 hPa | 0 mm | - | - | - |
| 1777675803 | 11.11° C | 60% | 1025.6 hPa | 0 mm | - | - | - |
| 1777675204 | 11.11° C | 59% | 1025.6 hPa | 0 mm | - | - | - |
| 1777674604 | 11.67° C | 58% | 1025.6 hPa | 0 mm | - | - | - |
| 1777674005 | 11.67° C | 58% | 1025.7 hPa | 0 mm | - | - | - |
| 1777673404 | 11.11° C | 60% | 1025.8 hPa | 0 mm | - | - | - |
| 1777672805 | 11.11° C | 61% | 1025.7 hPa | 0 mm | - | - | - |
| 1777672204 | 11.11° C | 61% | 1025.7 hPa | 0 mm | - | - | - |
| 1777671604 | 11.67° C | 60% | 1025.7 hPa | 0 mm | - | - | - |
| 1777671004 | 12.22° C | 58% | 1025.7 hPa | 0 mm | - | - | - |
| 1777670404 | 12.22° C | 57% | 1025.7 hPa | 0 mm | - | - | - |
| 1777669804 | 12.78° C | 56% | 1025.7 hPa | 0 mm | - | - | - |
* Rain latest hour (hover to see other rain measurements)
** Current wind speed in m/s (hover to see current wind gust speed)